createdAt,value
2022-11-28T00:01:41.367Z,101368.59
2022-11-28T00:04:10.814Z,101369.60
2022-11-28T00:06:45.695Z,101367.53
2022-11-28T00:09:15.083Z,101369.40
2022-11-28T05:00:58.503Z,101288.45
2022-11-28T05:03:29.579Z,101289.35
2022-11-28T05:05:58.113Z,101289.64
2022-11-28T05:08:26.465Z,101287.04
2022-11-28T05:10:54.951Z,101283.30
2022-11-28T05:13:23.153Z,101281.15
2022-11-28T05:15:51.630Z,101283.45
2022-11-28T05:18:19.898Z,101286.08
2022-11-28T05:20:48.771Z,101281.34
2022-11-28T05:23:17.050Z,101278.71
2022-11-28T05:25:45.251Z,101278.77
2022-11-28T05:28:13.425Z,101278.60
2022-11-28T05:30:41.759Z,101276.88
2022-11-28T05:33:10.088Z,101274.11
2022-11-28T05:35:41.175Z,101279.64
2022-11-28T05:38:13.402Z,101278.65
2022-11-28T05:40:44.436Z,101274.79
2022-11-28T05:43:13.424Z,101275.89
2022-11-28T05:45:42.849Z,101275.33
2022-11-28T05:48:14.024Z,101276.02
2022-11-28T05:50:42.939Z,101275.34
2022-11-28T05:53:11.727Z,101277.53
2022-11-28T05:55:41.094Z,101274.27
2022-11-28T05:58:09.832Z,101269.78
2022-11-28T06:00:38.448Z,101271.00
2022-11-28T06:03:06.746Z,101266.98
2022-11-28T06:05:42.692Z,101262.98
2022-11-28T06:08:12.861Z,101261.63
2022-11-28T06:10:41.598Z,101259.35
2022-11-28T06:13:09.798Z,101259.39
2022-11-28T06:15:42.598Z,101261.23
2022-11-28T06:18:11.036Z,101261.41
2022-11-28T06:20:39.381Z,101255.77
2022-11-28T06:23:07.616Z,101250.98
2022-11-28T06:25:35.840Z,101250.84
2022-11-28T06:28:04.875Z,101251.53
2022-11-28T06:30:33.133Z,101253.23
2022-11-28T06:33:02.689Z,101252.88
2022-11-28T06:35:31.079Z,101251.63
2022-11-28T06:37:59.352Z,101251.99
2022-11-28T06:40:27.566Z,101257.23
2022-11-28T06:42:56.069Z,101254.52
2022-11-28T06:45:24.258Z,101252.45
2022-11-28T06:47:52.407Z,101252.04
2022-11-28T06:50:20.682Z,101256.84
2022-11-28T06:52:49.160Z,101255.03
2022-11-28T06:55:17.760Z,101256.80
2022-11-28T06:57:46.207Z,101259.60
2022-11-28T07:00:15.071Z,101259.70
2022-11-28T07:02:43.302Z,101258.94
2022-11-28T07:05:11.941Z,101262.39
2022-11-28T07:07:53.360Z,101259.63
2022-11-28T07:10:22.952Z,101262.25
2022-11-28T07:13:05.218Z,101263.83
2022-11-28T07:15:33.877Z,101261.17
2022-11-28T07:18:02.187Z,101260.30
2022-11-28T07:20:30.709Z,101257.05
2022-11-28T07:22:59.119Z,101257.13
2022-11-28T07:25:27.480Z,101258.98
2022-11-28T07:27:55.718Z,101256.98
2022-11-28T07:30:23.960Z,101253.95
2022-11-28T07:32:52.293Z,101257.55
2022-11-28T07:35:20.607Z,101255.62
2022-11-28T07:37:49.001Z,101259.57
2022-11-28T07:40:19.868Z,101260.40
2022-11-28T07:42:48.938Z,101259.41
2022-11-28T07:45:17.203Z,101258.98
2022-11-28T07:47:45.457Z,101255.80
2022-11-28T07:50:13.638Z,101256.81
2022-11-28T07:52:41.953Z,101257.30
2022-11-28T07:55:10.437Z,101257.50
2022-11-28T07:57:39.390Z,101254.79
2022-11-28T08:00:09.729Z,101253.18
2022-11-28T08:02:40.766Z,101250.92
2022-11-28T08:05:09.594Z,101246.23
2022-11-28T08:07:37.967Z,101249.98
2022-11-28T08:10:07.317Z,101246.70
2022-11-28T08:12:35.581Z,101245.92
2022-11-28T08:15:04.108Z,101247.52
2022-11-28T08:17:34.515Z,101249.00
2022-11-28T08:20:02.855Z,101253.25
2022-11-28T08:22:31.115Z,101251.10
2022-11-28T08:24:59.620Z,101252.70
2022-11-28T08:27:27.887Z,101254.23
2022-11-28T08:29:56.070Z,101254.39
2022-11-28T08:32:24.358Z,101255.95
2022-11-28T08:34:52.646Z,101254.16
2022-11-28T08:37:20.793Z,101250.05
2022-11-28T08:39:48.992Z,101251.76
2022-11-28T08:42:17.231Z,101249.35
2022-11-28T08:44:45.470Z,101251.45
2022-11-28T08:47:13.741Z,101251.71
2022-11-28T08:49:42.280Z,101251.27
2022-11-28T08:52:11.136Z,101251.64
2022-11-28T08:54:39.487Z,101247.69
2022-11-28T08:57:07.968Z,101241.60
2022-11-28T08:59:38.855Z,101245.31
2022-11-28T09:02:11.139Z,101242.31
2022-11-28T09:04:39.700Z,101249.34
2022-11-28T09:07:08.081Z,101248.00
2022-11-28T09:09:36.345Z,101248.80
2022-11-28T09:12:04.943Z,101244.96
2022-11-28T09:14:33.198Z,101244.35
2022-11-28T09:17:01.560Z,101247.13
2022-11-28T09:19:29.908Z,101249.31
2022-11-28T09:21:58.215Z,101248.13
2022-11-28T09:24:26.427Z,101247.50
2022-11-28T09:26:55.019Z,101247.04
2022-11-28T09:29:23.192Z,101247.23
2022-11-28T09:31:51.674Z,101243.56
2022-11-28T09:34:20.055Z,101242.89
2022-11-28T09:36:50.241Z,101239.15
2022-11-28T09:39:18.562Z,101239.41
2022-11-28T09:41:52.841Z,101237.79
2022-11-28T09:44:33.772Z,101233.06
2022-11-28T09:47:06.870Z,101234.19
2022-11-28T09:49:48.603Z,101230.95
2022-11-28T09:52:26.323Z,101231.05
2022-11-28T09:55:17.190Z,101228.27
2022-11-28T09:57:51.284Z,101226.85
2022-11-28T10:00:32.992Z,101226.36
2022-11-28T10:03:30.714Z,101227.63
2022-11-28T10:06:12.816Z,101229.95
2022-11-28T10:09:05.524Z,101228.27
2022-11-28T10:11:54.663Z,101226.61
2022-11-28T10:15:07.636Z,101222.48
2022-11-28T10:17:48.852Z,101220.35
2022-11-28T10:20:27.853Z,101224.98
2022-11-28T10:23:22.315Z,101222.58
2022-11-28T10:26:04.958Z,101215.52
2022-11-28T10:28:37.244Z,101213.39
2022-11-28T10:31:09.145Z,101211.30
2022-11-28T10:33:45.077Z,101210.98
2022-11-28T10:36:23.534Z,101209.73
2022-11-28T10:38:51.907Z,101207.48
2022-11-28T10:42:11.966Z,101210.08
2022-11-28T10:45:14.280Z,101212.19
2022-11-28T10:47:45.482Z,101212.79
2022-11-28T10:50:20.352Z,101212.73
2022-11-28T10:53:00.818Z,101213.14
2022-11-28T10:55:50.072Z,101217.86
2022-11-28T10:58:31.373Z,101215.02
2022-11-28T11:01:00.466Z,101208.70
2022-11-28T11:03:32.837Z,101211.30
2022-11-28T11:06:01.021Z,101208.91
2022-11-28T11:08:34.670Z,101209.30
2022-11-28T11:11:04.994Z,101202.60
2022-11-28T11:13:54.894Z,101205.44
2022-11-28T11:16:23.449Z,101206.25
2022-11-28T11:18:54.005Z,101207.89
2022-11-28T11:21:27.750Z,101208.58
2022-11-28T11:24:16.941Z,101208.52
2022-11-28T11:26:48.897Z,101209.27
2022-11-28T11:29:22.805Z,101210.90
2022-11-28T11:31:53.417Z,101208.95
2022-11-28T11:34:24.159Z,101208.52
2022-11-28T11:37:16.680Z,101206.36
2022-11-28T11:39:52.897Z,101212.09
2022-11-28T11:42:23.885Z,101213.84
2022-11-28T11:44:54.367Z,101211.48
2022-11-28T11:47:42.423Z,101209.66
2022-11-28T11:50:21.081Z,101208.67
2022-11-28T11:53:15.104Z,101205.23
2022-11-28T11:55:52.883Z,101208.53
2022-11-28T11:58:29.208Z,101209.95
2022-11-28T12:00:59.886Z,101211.31
2022-11-28T12:03:40.188Z,101209.15
2022-11-28T12:06:20.768Z,101206.64
2022-11-28T12:09:07.774Z,101208.31
2022-11-28T12:11:45.614Z,101209.84
2022-11-28T12:14:32.125Z,101206.96
2022-11-28T12:17:25.717Z,101203.73
2022-11-28T12:20:30.884Z,101200.84
2022-11-28T12:23:17.737Z,101199.20
2022-11-28T12:25:53.253Z,101197.36
2022-11-28T12:28:43.640Z,101195.05
2022-11-28T12:31:24.990Z,101190.91
2022-11-28T12:34:04.941Z,101188.31
2022-11-28T12:36:51.484Z,101186.05
2022-11-28T12:39:38.504Z,101183.09
2022-11-28T12:42:28.282Z,101182.71
2022-11-28T12:45:18.835Z,101179.02
2022-11-28T12:48:04.337Z,101180.98
2022-11-28T12:50:38.155Z,101179.70
2022-11-28T12:53:44.452Z,101183.90
2022-11-28T12:56:37.069Z,101176.52
2022-11-28T12:59:45.507Z,101173.75
2022-11-28T13:02:46.549Z,101172.80
2022-11-28T13:05:15.064Z,101173.16
2022-11-28T13:08:00.395Z,101171.70
2022-11-28T13:11:03.398Z,101169.41
2022-11-28T13:13:46.145Z,101169.45
2022-11-28T13:16:34.670Z,101168.88
2022-11-28T13:19:28.635Z,101164.76
2022-11-28T13:22:03.175Z,101160.27
2022-11-28T13:25:04.183Z,101157.73
2022-11-28T13:27:51.189Z,101156.95
2022-11-28T13:30:24.821Z,101155.95
2022-11-28T13:33:25.360Z,101155.08
2022-11-28T13:35:54.327Z,101154.38
2022-11-28T13:39:11.320Z,101153.52
2022-11-28T13:42:36.076Z,101159.04
2022-11-28T13:44:58.380Z,101160.91
2022-11-28T13:47:28.208Z,101161.75
2022-11-28T13:50:25.161Z,101161.41
2022-11-28T13:53:10.535Z,101167.65
2022-11-28T13:55:50.423Z,101165.36
2022-11-28T13:58:30.027Z,101165.51
2022-11-28T14:01:22.318Z,101167.23
2022-11-28T14:04:02.927Z,101169.91
2022-11-28T14:06:49.003Z,101170.11
2022-11-28T14:09:17.224Z,101169.15
2022-11-28T14:12:15.256Z,101172.27
2022-11-28T14:15:08.641Z,101178.43
2022-11-28T14:17:59.754Z,101179.10
2022-11-28T14:20:43.065Z,101176.52
2022-11-28T14:23:40.792Z,101178.04
2022-11-28T14:26:25.956Z,101178.55
2022-11-28T14:28:54.540Z,101180.47
2022-11-28T14:31:34.480Z,101174.86
2022-11-28T14:34:11.226Z,101181.27
2022-11-28T14:36:42.172Z,101180.63
2022-11-28T14:39:13.113Z,101185.23
2022-11-28T14:42:04.388Z,101188.50
2022-11-28T14:45:03.227Z,101189.11
2022-11-28T14:47:39.501Z,101187.23
2022-11-28T14:50:09.565Z,101186.15
2022-11-28T14:52:40.312Z,101181.63
2022-11-28T14:55:10.100Z,101180.75
2022-11-28T14:57:53.005Z,101179.77
2022-11-28T15:00:50.022Z,101180.93
2022-11-28T15:03:45.104Z,101175.41
2022-11-28T15:06:20.861Z,101173.45
2022-11-28T15:09:12.924Z,101175.81
2022-11-28T15:11:58.893Z,101172.94
2022-11-28T15:14:31.661Z,101173.67
2022-11-28T15:17:06.291Z,101172.29
2022-11-28T15:19:38.659Z,101174.02
2022-11-28T15:22:06.954Z,101175.31
2022-11-28T15:24:38.384Z,101179.13
2022-11-28T15:27:09.981Z,101187.27
2022-11-28T15:29:38.813Z,101187.30
2022-11-28T15:32:07.316Z,101191.20
2022-11-28T15:34:37.944Z,101194.55
2022-11-28T15:37:15.406Z,101192.95
2022-11-28T15:39:47.635Z,101192.17
2022-11-28T15:42:36.576Z,101190.31
2022-11-28T15:45:18.685Z,101192.15
2022-11-28T15:47:49.287Z,101197.36
2022-11-28T15:50:25.210Z,101199.16
2022-11-28T15:52:57.081Z,101194.69
2022-11-28T15:55:27.724Z,101193.59
2022-11-28T15:58:21.050Z,101195.21
2022-11-28T16:00:57.147Z,101192.68
2022-11-28T16:03:29.145Z,101192.42
2022-11-28T16:05:58.910Z,101191.11
2022-11-28T16:08:31.626Z,101190.55
2022-11-28T16:11:03.377Z,101185.56
2022-11-28T16:13:33.461Z,101188.40
2022-11-28T16:16:04.233Z,101188.29
2022-11-28T16:18:32.813Z,101186.66
2022-11-28T16:21:01.944Z,101182.80
2022-11-28T16:23:35.097Z,101184.58
2022-11-28T16:26:29.524Z,101183.59
2022-11-28T16:29:06.956Z,101184.36
2022-11-28T16:31:35.908Z,101187.68
2022-11-28T16:34:04.232Z,101188.23
2022-11-28T16:36:37.658Z,101186.94
2022-11-28T16:39:12.059Z,101187.33
2022-11-28T16:41:48.168Z,101190.13
2022-11-28T16:44:22.128Z,101188.71
2022-11-28T16:47:00.338Z,101184.88
2022-11-28T16:49:45.097Z,101181.58
2022-11-28T16:52:28.640Z,101180.00
2022-11-28T16:55:00.814Z,101181.39
2022-11-28T16:57:46.619Z,101181.46
2022-11-28T17:00:15.380Z,101181.71
2022-11-28T17:02:43.820Z,101179.38
2022-11-28T17:05:12.095Z,101182.86
2022-11-28T17:07:40.279Z,101178.76
2022-11-28T17:10:12.940Z,101183.61
2022-11-28T17:12:41.557Z,101182.98
2022-11-28T17:15:16.696Z,101181.11
2022-11-28T17:17:45.595Z,101183.05
2022-11-28T17:20:15.411Z,101180.00
2022-11-28T17:22:47.057Z,101181.59
2022-11-28T17:25:18.835Z,101182.30
2022-11-28T17:27:50.678Z,101182.16
2022-11-28T17:30:19.672Z,101181.48
2022-11-28T17:32:48.660Z,101182.20
2022-11-28T17:35:21.694Z,101181.52
2022-11-28T17:37:50.256Z,101179.81
2022-11-28T17:40:33.798Z,101176.72
2022-11-28T17:43:03.589Z,101175.34
2022-11-28T17:45:35.138Z,101170.88
2022-11-28T17:48:03.729Z,101173.31
2022-11-28T17:50:32.024Z,101174.02
2022-11-28T17:53:00.671Z,101176.45
2022-11-28T17:55:30.175Z,101175.27
2022-11-28T17:57:59.193Z,101178.19
2022-11-28T18:00:29.289Z,101179.75
2022-11-28T18:02:57.839Z,101179.78
2022-11-28T18:05:26.838Z,101180.14
2022-11-28T18:07:55.091Z,101182.20
2022-11-28T18:10:23.439Z,101178.96
2022-11-28T18:12:51.741Z,101182.08
2022-11-28T18:15:20.073Z,101176.59
2022-11-28T18:17:48.555Z,101175.94
2022-11-28T18:20:17.026Z,101176.83
2022-11-28T18:22:45.195Z,101181.98
2022-11-28T18:25:14.076Z,101183.90
2022-11-28T18:27:42.609Z,101181.65
2022-11-28T18:30:13.641Z,101182.48
2022-11-28T18:32:42.081Z,101177.16
2022-11-28T18:35:11.224Z,101179.22
2022-11-28T18:37:40.491Z,101179.05
2022-11-28T18:40:09.783Z,101177.85
2022-11-28T18:42:39.088Z,101175.95
2022-11-28T18:45:09.524Z,101175.93
2022-11-28T18:47:38.199Z,101177.11
2022-11-28T18:50:07.658Z,101176.95
2022-11-28T18:52:36.705Z,101175.60
2022-11-28T18:55:06.853Z,101173.55
2022-11-28T18:57:36.425Z,101173.40
2022-11-28T19:00:06.448Z,101173.55
2022-11-28T19:02:35.273Z,101168.75
2022-11-28T19:05:04.894Z,101168.40
2022-11-28T19:07:33.838Z,101173.41
2022-11-28T19:10:03.572Z,101174.29
2022-11-28T19:12:31.756Z,101171.02
2022-11-28T19:15:02.368Z,101172.59
2022-11-28T19:17:31.373Z,101176.71
2022-11-28T19:19:59.708Z,101175.35
2022-11-28T19:22:28.089Z,101173.66
2022-11-28T19:24:58.156Z,101174.54
2022-11-28T19:27:26.675Z,101174.21
2022-11-28T19:29:54.900Z,101180.60
2022-11-28T19:32:24.131Z,101182.33
2022-11-28T19:34:53.680Z,101181.29
2022-11-28T19:37:21.873Z,101180.77
2022-11-28T19:39:50.220Z,101177.15
2022-11-28T19:42:19.069Z,101177.84
2022-11-28T19:44:47.345Z,101177.84
2022-11-28T19:47:15.899Z,101172.67
2022-11-28T19:49:44.362Z,101171.61
2022-11-28T19:52:12.788Z,101168.83
2022-11-28T19:54:41.996Z,101171.59
2022-11-28T19:57:11.466Z,101174.34
2022-11-28T19:59:39.823Z,101176.42
2022-11-28T20:02:09.525Z,101175.20
2022-11-28T20:04:40.464Z,101176.40
2022-11-28T20:07:08.656Z,101180.02
2022-11-28T20:09:37.604Z,101181.89
2022-11-28T20:12:05.942Z,101178.98
2022-11-28T20:14:35.141Z,101175.19
2022-11-28T20:17:05.260Z,101174.63
2022-11-28T20:19:34.477Z,101177.16
2022-11-28T20:22:02.626Z,101174.05
2022-11-28T20:24:31.079Z,101170.95
2022-11-28T20:26:59.497Z,101169.42
2022-11-28T20:29:28.742Z,101171.52
2022-11-28T20:31:57.442Z,101185.48
2022-11-28T20:34:27.608Z,101183.89
2022-11-28T20:36:55.924Z,101181.46
2022-11-28T20:39:25.858Z,101184.23
2022-11-28T20:41:54.425Z,101179.06
2022-11-28T20:44:22.756Z,101178.02
2022-11-28T20:46:51.417Z,101181.75
2022-11-28T20:49:19.670Z,101175.66
2022-11-28T20:51:47.988Z,101176.69
2022-11-28T20:54:16.755Z,101176.00
2022-11-28T20:57:19.833Z,101171.36
2022-11-28T20:59:33.918Z,101173.95
2022-11-28T21:02:02.366Z,101175.66
2022-11-28T21:04:31.547Z,101168.99
2022-11-28T21:06:59.790Z,101163.13
2022-11-28T21:09:28.292Z,101165.85
2022-11-28T21:11:59.272Z,101167.73
2022-11-28T21:14:29.071Z,101170.52
2022-11-28T21:16:58.988Z,101175.38
2022-11-28T21:19:27.764Z,101176.23
2022-11-28T21:21:56.171Z,101173.00
2022-11-28T21:24:24.514Z,101176.80
2022-11-28T21:26:54.707Z,101177.18
2022-11-28T21:29:24.696Z,101177.20
2022-11-28T21:31:53.705Z,101177.55
2022-11-28T21:34:22.992Z,101172.38
2022-11-28T21:36:51.570Z,101174.60
2022-11-28T21:39:20.903Z,101178.52
2022-11-28T21:41:51.176Z,101182.97
2022-11-28T21:44:20.286Z,101179.46
2022-11-28T21:46:48.912Z,101180.85
2022-11-28T21:49:17.870Z,101181.91
2022-11-28T21:51:46.242Z,101180.53
2022-11-28T21:54:14.942Z,101184.27
2022-11-28T21:56:46.209Z,101183.73
2022-11-28T21:59:14.711Z,101180.55
2022-11-28T22:01:43.460Z,101178.98
2022-11-28T22:04:12.010Z,101182.08
2022-11-28T22:06:40.717Z,101177.28
2022-11-28T22:09:10.130Z,101176.40
2022-11-28T22:11:40.259Z,101169.35
2022-11-28T22:14:08.637Z,101165.55
2022-11-28T22:16:37.543Z,101167.62
2022-11-28T22:19:05.892Z,101169.73
2022-11-28T22:21:52.984Z,101170.60
2022-11-28T22:24:23.320Z,101169.92
2022-11-28T22:26:52.604Z,101166.60
2022-11-28T22:29:20.858Z,101164.21
2022-11-28T22:31:50.501Z,101162.55
2022-11-28T22:34:19.696Z,101159.09
2022-11-28T22:36:47.911Z,101159.30
2022-11-28T22:39:16.227Z,101161.04
2022-11-28T22:41:44.537Z,101164.48
2022-11-28T22:44:12.793Z,101166.04
2022-11-28T22:46:41.047Z,101168.46
2022-11-28T22:49:11.687Z,101173.05
2022-11-28T22:51:40.832Z,101176.08
2022-11-28T22:54:12.228Z,101172.92
2022-11-28T22:56:41.040Z,101173.73
2022-11-28T22:59:14.741Z,101172.21
2022-11-28T23:01:43.766Z,101167.25
2022-11-28T23:04:12.790Z,101168.14
2022-11-28T23:06:41.656Z,101168.33
2022-11-28T23:12:01.384Z,101168.13
2022-11-28T23:14:30.471Z,101169.48
2022-11-28T23:17:00.060Z,101168.64
2022-11-28T23:19:31.924Z,101171.57
2022-11-28T23:22:00.224Z,101174.78
2022-11-28T23:24:28.492Z,101176.34
2022-11-28T23:26:57.028Z,101170.51
2022-11-28T23:29:25.365Z,101172.52
2022-11-28T23:31:53.611Z,101171.45
2022-11-28T23:34:22.196Z,101173.17
2022-11-28T23:36:50.457Z,101171.27
2022-11-28T23:39:21.395Z,101172.78
2022-11-28T23:41:50.516Z,101171.95
2022-11-28T23:44:19.939Z,101170.98
2022-11-28T23:46:49.251Z,101172.66
2022-11-28T23:49:18.090Z,101167.53
2022-11-28T23:51:46.354Z,101167.39
2022-11-28T23:54:14.817Z,101168.08
2022-11-28T23:56:43.850Z,101166.54
2022-11-28T23:59:12.793Z,101169.39
